This is the latest recevied weather packets stored in our database for station/object K0WXC-1. If no packets are shown the sender has not sent any weather packets the latest 10 day(s).
| Time | Temp. | Humidity | Pressure | Rain* | Wind** | Luminosity | Snow |
|---|---|---|---|---|---|---|---|
| 1777298848 | 15.56° C | 95% | 985.2 hPa | 0 mm | 3.13 m/s, 92° | - | - |
| 1777298789 | 15.56° C | 95% | 985.2 hPa | 0 mm | 3.13 m/s, 92° | - | - |
| 1777298728 | 15.56° C | 96% | 985.7 hPa | 0 mm | 2.24 m/s, 61° | - | - |
| 1777298668 | 15.56° C | 96% | 985.7 hPa | 0 mm | 2.24 m/s, 61° | - | - |
| 1777298608 | 15.56° C | 96% | 985.7 hPa | 0 mm | 2.24 m/s, 61° | - | - |
| 1777298548 | 15.56° C | 96% | 985.7 hPa | 0 mm | 2.24 m/s, 61° | - | - |
| 1777298488 | 15.56° C | 96% | 985.7 hPa | 0 mm | 2.24 m/s, 61° | - | - |
| 1777298428 | 15.56° C | 98% | 985.8 hPa | 0 mm | 3.13 m/s, 31° | - | - |
| 1777298368 | 15.56° C | 98% | 985.8 hPa | 0 mm | 3.13 m/s, 31° | - | - |
| 1777298308 | 15.56° C | 98% | 985.8 hPa | 0 mm | 3.13 m/s, 31° | - | - |
| 1777298248 | 15.56° C | 98% | 985.8 hPa | 0 mm | 3.13 m/s, 31° | - | - |
| 1777298188 | 15.56° C | 98% | 985.8 hPa | 0 mm | 3.13 m/s, 31° | - | - |
| 1777298128 | 15.56° C | 98% | 986 hPa | 0 mm | 4.47 m/s, 93° | - | - |
| 1777298068 | 15.56° C | 98% | 986 hPa | 0 mm | 4.47 m/s, 93° | - | - |
| 1777298008 | 15.56° C | 98% | 986 hPa | 0 mm | 4.47 m/s, 93° | - | - |
| 1777297948 | 15.56° C | 98% | 986 hPa | 0 mm | 4.47 m/s, 93° | - | - |
| 1777297888 | 15.56° C | 98% | 986 hPa | 0 mm | 4.47 m/s, 93° | - | - |
| 1777297828 | 15.56° C | 98% | 985.7 hPa | 0 mm | 6.71 m/s, 82° | - | - |
| 1777297768 | 15.56° C | 98% | 985.7 hPa | 0 mm | 6.71 m/s, 82° | - | - |
| 1777297708 | 15.56° C | 98% | 985.7 hPa | 0 mm | 6.71 m/s, 82° | - | - |
| 1777297648 | 15.56° C | 98% | 985.7 hPa | 0 mm | 6.71 m/s, 82° | - | - |
| 1777297588 | 15.56° C | 98% | 985.7 hPa | 0 mm | 6.71 m/s, 82° | - | - |
| 1777297528 | 15.56° C | 98% | 986.6 hPa | 0 mm | 5.36 m/s, 123° | - | - |
| 1777297468 | 15.56° C | 98% | 986.6 hPa | 0 mm | 5.36 m/s, 123° | - | - |
| 1777297408 | 15.56° C | 98% | 986.6 hPa | 0 mm | 5.36 m/s, 123° | - | - |
* Rain latest hour (hover to see other rain measurements)
** Current wind speed in m/s (hover to see current wind gust speed)